sensor_id;sensor_type;location;lat;lon;timestamp;P1;durP1;ratioP1;P2;durP2;ratioP2
5363;SDS011;2705;41.410;2.160;2022-12-29T00:00:19;18.70;;;11.33;;
5363;SDS011;2705;41.410;2.160;2022-12-29T00:02:48;17.53;;;11.40;;
5363;SDS011;2705;41.410;2.160;2022-12-29T00:05:18;21.17;;;11.53;;
5363;SDS011;2705;41.410;2.160;2022-12-29T00:07:47;18.30;;;11.00;;
5363;SDS011;2705;41.410;2.160;2022-12-29T00:10:16;21.90;;;9.97;;
5363;SDS011;2705;41.410;2.160;2022-12-29T00:12:46;20.13;;;9.70;;
5363;SDS011;2705;41.410;2.160;2022-12-29T00:15:35;16.23;;;9.10;;
5363;SDS011;2705;41.410;2.160;2022-12-29T00:18:07;20.87;;;9.57;;
5363;SDS011;2705;41.410;2.160;2022-12-29T00:20:37;21.20;;;9.40;;
5363;SDS011;2705;41.410;2.160;2022-12-29T00:23:24;27.30;;;10.50;;
5363;SDS011;2705;41.410;2.160;2022-12-29T00:26:12;16.23;;;9.43;;
5363;SDS011;2705;41.410;2.160;2022-12-29T00:28:59;18.30;;;10.00;;
5363;SDS011;2705;41.410;2.160;2022-12-29T00:31:50;17.40;;;8.93;;
5363;SDS011;2705;41.410;2.160;2022-12-29T00:34:36;18.60;;;9.10;;
5363;SDS011;2705;41.410;2.160;2022-12-29T00:37:23;15.60;;;9.03;;
5363;SDS011;2705;41.410;2.160;2022-12-29T00:40:07;23.07;;;9.17;;
5363;SDS011;2705;41.410;2.160;2022-12-29T00:42:53;15.50;;;8.53;;
5363;SDS011;2705;41.410;2.160;2022-12-29T00:45:40;18.80;;;9.13;;
5363;SDS011;2705;41.410;2.160;2022-12-29T00:48:11;20.60;;;9.80;;
5363;SDS011;2705;41.410;2.160;2022-12-29T00:50:40;17.77;;;9.00;;
5363;SDS011;2705;41.410;2.160;2022-12-29T00:53:09;19.50;;;9.03;;
5363;SDS011;2705;41.410;2.160;2022-12-29T00:55:39;17.00;;;9.33;;
5363;SDS011;2705;41.410;2.160;2022-12-29T00:58:08;16.80;;;9.17;;
5363;SDS011;2705;41.410;2.160;2022-12-29T01:00:38;17.23;;;8.70;;
5363;SDS011;2705;41.410;2.160;2022-12-29T01:03:07;17.40;;;10.17;;
5363;SDS011;2705;41.410;2.160;2022-12-29T01:05:38;17.93;;;10.37;;
5363;SDS011;2705;41.410;2.160;2022-12-29T01:08:08;17.60;;;10.20;;
5363;SDS011;2705;41.410;2.160;2022-12-29T01:10:37;21.63;;;11.33;;
5363;SDS011;2705;41.410;2.160;2022-12-29T01:13:05;17.73;;;10.60;;
5363;SDS011;2705;41.410;2.160;2022-12-29T01:15:34;19.70;;;10.57;;
5363;SDS011;2705;41.410;2.160;2022-12-29T01:18:04;17.20;;;9.90;;
5363;SDS011;2705;41.410;2.160;2022-12-29T01:20:33;22.03;;;10.13;;
5363;SDS011;2705;41.410;2.160;2022-12-29T01:23:05;16.60;;;8.60;;
5363;SDS011;2705;41.410;2.160;2022-12-29T01:25:35;19.03;;;9.10;;
5363;SDS011;2705;41.410;2.160;2022-12-29T01:28:04;16.60;;;9.10;;
5363;SDS011;2705;41.410;2.160;2022-12-29T01:30:33;16.60;;;8.80;;
5363;SDS011;2705;41.410;2.160;2022-12-29T01:33:02;17.47;;;9.00;;
5363;SDS011;2705;41.410;2.160;2022-12-29T01:35:33;15.37;;;10.37;;
5363;SDS011;2705;41.410;2.160;2022-12-29T01:38:03;16.40;;;10.20;;
5363;SDS011;2705;41.410;2.160;2022-12-29T01:40:34;19.40;;;9.70;;
5363;SDS011;2705;41.410;2.160;2022-12-29T01:43:12;18.30;;;8.90;;
5363;SDS011;2705;41.410;2.160;2022-12-29T01:45:43;18.10;;;9.77;;
5363;SDS011;2705;41.410;2.160;2022-12-29T01:48:13;15.90;;;9.93;;
5363;SDS011;2705;41.410;2.160;2022-12-29T01:50:45;16.63;;;8.73;;
5363;SDS011;2705;41.410;2.160;2022-12-29T01:53:18;16.30;;;9.40;;
5363;SDS011;2705;41.410;2.160;2022-12-29T01:55:50;15.50;;;7.97;;
5363;SDS011;2705;41.410;2.160;2022-12-29T01:58:21;18.77;;;9.87;;
5363;SDS011;2705;41.410;2.160;2022-12-29T02:00:56;17.37;;;8.50;;
5363;SDS011;2705;41.410;2.160;2022-12-29T02:03:26;16.67;;;9.00;;
5363;SDS011;2705;41.410;2.160;2022-12-29T02:05:59;20.57;;;10.70;;
5363;SDS011;2705;41.410;2.160;2022-12-29T02:08:31;17.77;;;10.13;;
5363;SDS011;2705;41.410;2.160;2022-12-29T02:11:01;21.97;;;9.73;;
5363;SDS011;2705;41.410;2.160;2022-12-29T02:13:33;18.10;;;9.57;;
5363;SDS011;2705;41.410;2.160;2022-12-29T02:16:05;17.40;;;10.03;;
5363;SDS011;2705;41.410;2.160;2022-12-29T02:18:40;18.57;;;9.83;;
5363;SDS011;2705;41.410;2.160;2022-12-29T02:26:58;19.37;;;10.57;;
5363;SDS011;2705;41.410;2.160;2022-12-29T02:32:27;16.53;;;8.80;;
5363;SDS011;2705;41.410;2.160;2022-12-29T02:35:01;12.40;;;8.47;;
5363;SDS011;2705;41.410;2.160;2022-12-29T02:37:35;13.13;;;8.40;;
5363;SDS011;2705;41.410;2.160;2022-12-29T02:40:11;13.83;;;8.63;;
5363;SDS011;2705;41.410;2.160;2022-12-29T02:42:46;14.87;;;8.43;;
5363;SDS011;2705;41.410;2.160;2022-12-29T02:45:19;15.20;;;8.20;;
5363;SDS011;2705;41.410;2.160;2022-12-29T02:47:52;21.40;;;9.00;;
5363;SDS011;2705;41.410;2.160;2022-12-29T02:50:23;13.07;;;8.30;;
5363;SDS011;2705;41.410;2.160;2022-12-29T02:52:56;23.43;;;10.37;;
5363;SDS011;2705;41.410;2.160;2022-12-29T02:55:26;15.10;;;8.10;;
5363;SDS011;2705;41.410;2.160;2022-12-29T02:58:06;18.33;;;9.43;;
5363;SDS011;2705;41.410;2.160;2022-12-29T03:00:45;11.87;;;8.40;;
5363;SDS011;2705;41.410;2.160;2022-12-29T03:03:46;16.53;;;8.53;;
5363;SDS011;2705;41.410;2.160;2022-12-29T03:06:21;12.60;;;8.40;;
5363;SDS011;2705;41.410;2.160;2022-12-29T03:08:55;16.60;;;8.17;;
5363;SDS011;2705;41.410;2.160;2022-12-29T03:11:29;17.87;;;8.90;;
5363;SDS011;2705;41.410;2.160;2022-12-29T03:14:22;23.13;;;9.17;;
5363;SDS011;2705;41.410;2.160;2022-12-29T03:17:13;19.67;;;8.43;;
5363;SDS011;2705;41.410;2.160;2022-12-29T03:19:46;18.60;;;7.87;;
5363;SDS011;2705;41.410;2.160;2022-12-29T03:22:18;14.97;;;8.07;;
5363;SDS011;2705;41.410;2.160;2022-12-29T03:25:08;14.57;;;8.30;;
5363;SDS011;2705;41.410;2.160;2022-12-29T03:27:39;16.50;;;8.20;;
5363;SDS011;2705;41.410;2.160;2022-12-29T03:30:09;13.67;;;7.90;;
5363;SDS011;2705;41.410;2.160;2022-12-29T03:32:40;12.20;;;7.63;;
5363;SDS011;2705;41.410;2.160;2022-12-29T03:35:14;17.00;;;9.13;;
5363;SDS011;2705;41.410;2.160;2022-12-29T03:37:47;14.57;;;7.97;;
5363;SDS011;2705;41.410;2.160;2022-12-29T03:40:18;12.77;;;7.80;;
5363;SDS011;2705;41.410;2.160;2022-12-29T03:42:50;15.10;;;8.27;;
5363;SDS011;2705;41.410;2.160;2022-12-29T03:45:19;17.83;;;8.77;;
5363;SDS011;2705;41.410;2.160;2022-12-29T03:47:49;13.13;;;8.20;;
5363;SDS011;2705;41.410;2.160;2022-12-29T03:50:20;14.40;;;8.40;;
5363;SDS011;2705;41.410;2.160;2022-12-29T03:52:49;18.23;;;7.80;;
5363;SDS011;2705;41.410;2.160;2022-12-29T03:55:18;15.93;;;7.90;;
5363;SDS011;2705;41.410;2.160;2022-12-29T03:57:48;15.03;;;7.80;;
5363;SDS011;2705;41.410;2.160;2022-12-29T04:00:25;12.03;;;8.10;;
5363;SDS011;2705;41.410;2.160;2022-12-29T04:02:55;17.00;;;8.07;;
5363;SDS011;2705;41.410;2.160;2022-12-29T04:05:26;19.90;;;6.97;;
5363;SDS011;2705;41.410;2.160;2022-12-29T04:07:55;13.90;;;8.47;;
5363;SDS011;2705;41.410;2.160;2022-12-29T04:10:25;13.80;;;8.17;;
5363;SDS011;2705;41.410;2.160;2022-12-29T04:12:57;13.03;;;6.57;;
5363;SDS011;2705;41.410;2.160;2022-12-29T04:15:27;10.57;;;6.90;;
5363;SDS011;2705;41.410;2.160;2022-12-29T04:17:56;11.60;;;7.03;;
5363;SDS011;2705;41.410;2.160;2022-12-29T04:20:29;13.17;;;7.40;;
5363;SDS011;2705;41.410;2.160;2022-12-29T04:23:16;11.90;;;6.10;;
5363;SDS011;2705;41.410;2.160;2022-12-29T04:25:45;14.00;;;6.23;;
5363;SDS011;2705;41.410;2.160;2022-12-29T04:28:15;13.80;;;6.47;;
5363;SDS011;2705;41.410;2.160;2022-12-29T04:31:14;12.07;;;6.60;;
5363;SDS011;2705;41.410;2.160;2022-12-29T04:33:45;11.90;;;6.10;;
5363;SDS011;2705;41.410;2.160;2022-12-29T04:36:16;12.40;;;6.27;;
5363;SDS011;2705;41.410;2.160;2022-12-29T04:38:49;11.37;;;6.50;;
5363;SDS011;2705;41.410;2.160;2022-12-29T04:41:18;10.47;;;5.77;;
5363;SDS011;2705;41.410;2.160;2022-12-29T04:43:48;9.70;;;5.20;;
5363;SDS011;2705;41.410;2.160;2022-12-29T04:46:36;9.50;;;5.53;;
5363;SDS011;2705;41.410;2.160;2022-12-29T04:49:16;9.93;;;5.50;;
5363;SDS011;2705;41.410;2.160;2022-12-29T04:51:57;10.80;;;5.13;;
5363;SDS011;2705;41.410;2.160;2022-12-29T04:54:26;10.43;;;5.83;;
5363;SDS011;2705;41.410;2.160;2022-12-29T04:57:05;10.57;;;5.93;;
5363;SDS011;2705;41.410;2.160;2022-12-29T04:59:37;12.90;;;5.53;;
5363;SDS011;2705;41.410;2.160;2022-12-29T05:02:08;11.30;;;5.40;;
5363;SDS011;2705;41.410;2.160;2022-12-29T05:04:37;11.07;;;6.77;;
5363;SDS011;2705;41.410;2.160;2022-12-29T05:07:08;11.30;;;5.90;;
5363;SDS011;2705;41.410;2.160;2022-12-29T05:09:37;18.40;;;5.73;;
5363;SDS011;2705;41.410;2.160;2022-12-29T05:12:06;12.80;;;6.43;;
5363;SDS011;2705;41.410;2.160;2022-12-29T05:14:42;12.20;;;5.50;;
5363;SDS011;2705;41.410;2.160;2022-12-29T05:17:11;13.27;;;5.50;;
5363;SDS011;2705;41.410;2.160;2022-12-29T05:19:42;11.13;;;5.40;;
5363;SDS011;2705;41.410;2.160;2022-12-29T05:22:12;9.50;;;4.57;;
5363;SDS011;2705;41.410;2.160;2022-12-29T05:24:44;10.50;;;4.90;;
5363;SDS011;2705;41.410;2.160;2022-12-29T05:27:14;7.70;;;4.67;;
5363;SDS011;2705;41.410;2.160;2022-12-29T05:30:07;10.37;;;5.47;;
5363;SDS011;2705;41.410;2.160;2022-12-29T05:32:36;11.53;;;6.07;;
5363;SDS011;2705;41.410;2.160;2022-12-29T05:35:07;8.53;;;4.20;;
5363;SDS011;2705;41.410;2.160;2022-12-29T05:37:38;9.63;;;4.40;;
5363;SDS011;2705;41.410;2.160;2022-12-29T05:40:08;7.87;;;4.10;;
5363;SDS011;2705;41.410;2.160;2022-12-29T05:42:38;9.50;;;5.13;;
5363;SDS011;2705;41.410;2.160;2022-12-29T05:45:18;12.60;;;4.97;;
5363;SDS011;2705;41.410;2.160;2022-12-29T05:48:02;12.33;;;5.53;;
5363;SDS011;2705;41.410;2.160;2022-12-29T05:50:42;13.93;;;5.27;;
5363;SDS011;2705;41.410;2.160;2022-12-29T05:53:19;7.53;;;5.37;;
5363;SDS011;2705;41.410;2.160;2022-12-29T05:55:49;13.30;;;6.17;;
5363;SDS011;2705;41.410;2.160;2022-12-29T05:58:19;10.13;;;5.33;;
5363;SDS011;2705;41.410;2.160;2022-12-29T06:03:44;12.80;;;5.40;;
5363;SDS011;2705;41.410;2.160;2022-12-29T06:06:17;12.90;;;6.00;;
5363;SDS011;2705;41.410;2.160;2022-12-29T06:08:48;81.40;;;42.40;;
5363;SDS011;2705;41.410;2.160;2022-12-29T06:11:18;11.47;;;5.30;;
5363;SDS011;2705;41.410;2.160;2022-12-29T06:13:54;11.53;;;5.30;;
5363;SDS011;2705;41.410;2.160;2022-12-29T06:16:24;10.33;;;4.10;;
5363;SDS011;2705;41.410;2.160;2022-12-29T06:18:56;10.07;;;4.33;;
5363;SDS011;2705;41.410;2.160;2022-12-29T06:21:26;5.30;;;3.07;;
5363;SDS011;2705;41.410;2.160;2022-12-29T06:23:59;8.03;;;3.53;;
5363;SDS011;2705;41.410;2.160;2022-12-29T06:26:28;6.70;;;3.10;;
5363;SDS011;2705;41.410;2.160;2022-12-29T06:28:58;4.37;;;2.40;;
5363;SDS011;2705;41.410;2.160;2022-12-29T06:31:27;8.93;;;3.40;;
5363;SDS011;2705;41.410;2.160;2022-12-29T06:33:56;8.37;;;3.10;;
5363;SDS011;2705;41.410;2.160;2022-12-29T06:36:33;7.37;;;3.50;;
5363;SDS011;2705;41.410;2.160;2022-12-29T06:39:05;6.60;;;2.97;;
5363;SDS011;2705;41.410;2.160;2022-12-29T06:41:34;14.50;;;3.43;;
5363;SDS011;2705;41.410;2.160;2022-12-29T06:44:13;6.20;;;2.83;;
5363;SDS011;2705;41.410;2.160;2022-12-29T06:46:50;5.00;;;2.20;;
5363;SDS011;2705;41.410;2.160;2022-12-29T06:49:19;14.30;;;3.70;;
5363;SDS011;2705;41.410;2.160;2022-12-29T06:51:49;38.43;;;11.50;;
5363;SDS011;2705;41.410;2.160;2022-12-29T06:54:19;23.70;;;5.37;;
5363;SDS011;2705;41.410;2.160;2022-12-29T06:56:49;13.20;;;2.70;;
5363;SDS011;2705;41.410;2.160;2022-12-29T06:59:18;15.13;;;3.40;;
5363;SDS011;2705;41.410;2.160;2022-12-29T07:01:47;10.00;;;3.03;;
5363;SDS011;2705;41.410;2.160;2022-12-29T07:04:17;8.63;;;3.30;;
5363;SDS011;2705;41.410;2.160;2022-12-29T07:06:46;9.50;;;3.73;;
5363;SDS011;2705;41.410;2.160;2022-12-29T07:09:16;10.53;;;4.33;;
5363;SDS011;2705;41.410;2.160;2022-12-29T07:11:47;15.50;;;3.90;;
5363;SDS011;2705;41.410;2.160;2022-12-29T07:14:16;14.43;;;4.70;;
5363;SDS011;2705;41.410;2.160;2022-12-29T07:16:45;8.20;;;4.20;;
5363;SDS011;2705;41.410;2.160;2022-12-29T07:19:14;9.80;;;3.57;;
5363;SDS011;2705;41.410;2.160;2022-12-29T07:21:44;10.53;;;3.73;;
5363;SDS011;2705;41.410;2.160;2022-12-29T07:24:13;10.27;;;4.37;;
5363;SDS011;2705;41.410;2.160;2022-12-29T07:26:42;7.60;;;4.33;;
5363;SDS011;2705;41.410;2.160;2022-12-29T07:29:13;9.43;;;4.40;;
5363;SDS011;2705;41.410;2.160;2022-12-29T07:31:43;12.60;;;3.70;;
5363;SDS011;2705;41.410;2.160;2022-12-29T07:34:12;6.73;;;3.37;;
5363;SDS011;2705;41.410;2.160;2022-12-29T07:36:41;9.07;;;3.53;;
5363;SDS011;2705;41.410;2.160;2022-12-29T07:39:10;8.40;;;4.50;;
5363;SDS011;2705;41.410;2.160;2022-12-29T07:41:40;9.70;;;4.20;;
5363;SDS011;2705;41.410;2.160;2022-12-29T07:44:17;12.60;;;5.63;;
5363;SDS011;2705;41.410;2.160;2022-12-29T07:46:52;13.13;;;4.93;;
5363;SDS011;2705;41.410;2.160;2022-12-29T07:49:24;12.93;;;5.57;;
5363;SDS011;2705;41.410;2.160;2022-12-29T07:51:53;13.10;;;5.20;;
5363;SDS011;2705;41.410;2.160;2022-12-29T07:54:23;14.23;;;4.80;;
5363;SDS011;2705;41.410;2.160;2022-12-29T07:56:52;20.70;;;5.23;;
5363;SDS011;2705;41.410;2.160;2022-12-29T07:59:22;24.10;;;4.43;;
5363;SDS011;2705;41.410;2.160;2022-12-29T08:01:52;16.30;;;4.60;;
5363;SDS011;2705;41.410;2.160;2022-12-29T08:04:21;11.80;;;4.53;;
5363;SDS011;2705;41.410;2.160;2022-12-29T08:06:51;17.27;;;4.43;;
5363;SDS011;2705;41.410;2.160;2022-12-29T08:09:20;10.97;;;4.27;;
5363;SDS011;2705;41.410;2.160;2022-12-29T08:11:50;13.53;;;5.07;;
5363;SDS011;2705;41.410;2.160;2022-12-29T08:14:20;16.50;;;5.20;;
5363;SDS011;2705;41.410;2.160;2022-12-29T08:16:50;16.60;;;4.90;;
5363;SDS011;2705;41.410;2.160;2022-12-29T08:19:20;11.03;;;4.87;;
5363;SDS011;2705;41.410;2.160;2022-12-29T08:21:49;12.83;;;3.50;;
5363;SDS011;2705;41.410;2.160;2022-12-29T08:24:19;14.17;;;4.63;;
5363;SDS011;2705;41.410;2.160;2022-12-29T08:26:48;4.73;;;3.40;;
5363;SDS011;2705;41.410;2.160;2022-12-29T08:29:18;24.20;;;4.43;;
5363;SDS011;2705;41.410;2.160;2022-12-29T08:31:48;15.03;;;4.37;;
5363;SDS011;2705;41.410;2.160;2022-12-29T08:34:19;5.73;;;2.50;;
5363;SDS011;2705;41.410;2.160;2022-12-29T08:36:48;12.57;;;3.70;;
5363;SDS011;2705;41.410;2.160;2022-12-29T08:39:18;9.40;;;3.50;;
5363;SDS011;2705;41.410;2.160;2022-12-29T08:41:48;5.90;;;2.50;;
5363;SDS011;2705;41.410;2.160;2022-12-29T08:44:17;5.53;;;2.70;;
5363;SDS011;2705;41.410;2.160;2022-12-29T08:46:46;9.30;;;2.87;;
5363;SDS011;2705;41.410;2.160;2022-12-29T08:49:16;6.30;;;2.50;;
5363;SDS011;2705;41.410;2.160;2022-12-29T08:51:47;6.13;;;2.30;;
5363;SDS011;2705;41.410;2.160;2022-12-29T08:54:16;11.03;;;3.03;;
5363;SDS011;2705;41.410;2.160;2022-12-29T08:56:45;7.40;;;2.43;;
5363;SDS011;2705;41.410;2.160;2022-12-29T08:59:15;5.30;;;2.53;;
5363;SDS011;2705;41.410;2.160;2022-12-29T09:01:47;13.67;;;3.60;;
5363;SDS011;2705;41.410;2.160;2022-12-29T09:04:16;5.57;;;2.53;;
5363;SDS011;2705;41.410;2.160;2022-12-29T09:06:47;4.07;;;2.80;;
5363;SDS011;2705;41.410;2.160;2022-12-29T09:09:17;7.07;;;3.27;;
5363;SDS011;2705;41.410;2.160;2022-12-29T09:11:46;5.93;;;2.93;;
5363;SDS011;2705;41.410;2.160;2022-12-29T09:14:15;4.13;;;2.37;;
5363;SDS011;2705;41.410;2.160;2022-12-29T09:16:44;5.30;;;2.50;;
5363;SDS011;2705;41.410;2.160;2022-12-29T09:19:31;8.10;;;2.20;;
5363;SDS011;2705;41.410;2.160;2022-12-29T09:22:02;4.20;;;2.30;;
5363;SDS011;2705;41.410;2.160;2022-12-29T09:24:31;10.10;;;2.80;;
5363;SDS011;2705;41.410;2.160;2022-12-29T09:27:00;6.03;;;2.23;;
5363;SDS011;2705;41.410;2.160;2022-12-29T09:29:29;12.50;;;3.03;;
5363;SDS011;2705;41.410;2.160;2022-12-29T09:31:59;6.00;;;2.50;;
5363;SDS011;2705;41.410;2.160;2022-12-29T09:34:33;13.87;;;2.90;;
5363;SDS011;2705;41.410;2.160;2022-12-29T09:37:04;7.13;;;2.50;;
5363;SDS011;2705;41.410;2.160;2022-12-29T09:39:34;6.30;;;2.97;;
5363;SDS011;2705;41.410;2.160;2022-12-29T09:42:04;9.67;;;2.97;;
5363;SDS011;2705;41.410;2.160;2022-12-29T09:44:42;8.23;;;2.43;;
5363;SDS011;2705;41.410;2.160;2022-12-29T09:47:14;9.77;;;2.63;;
5363;SDS011;2705;41.410;2.160;2022-12-29T09:49:46;5.40;;;2.30;;
5363;SDS011;2705;41.410;2.160;2022-12-29T09:52:20;12.40;;;4.67;;
5363;SDS011;2705;41.410;2.160;2022-12-29T09:54:53;8.30;;;2.60;;
5363;SDS011;2705;41.410;2.160;2022-12-29T09:57:32;4.30;;;2.60;;
5363;SDS011;2705;41.410;2.160;2022-12-29T10:00:03;7.40;;;2.80;;
5363;SDS011;2705;41.410;2.160;2022-12-29T10:02:38;5.10;;;2.40;;
5363;SDS011;2705;41.410;2.160;2022-12-29T10:05:13;9.63;;;2.57;;
5363;SDS011;2705;41.410;2.160;2022-12-29T10:07:48;3.53;;;2.50;;
5363;SDS011;2705;41.410;2.160;2022-12-29T10:10:24;18.03;;;2.27;;
5363;SDS011;2705;41.410;2.160;2022-12-29T10:12:58;15.57;;;3.10;;
5363;SDS011;2705;41.410;2.160;2022-12-29T10:15:33;4.43;;;2.60;;
5363;SDS011;2705;41.410;2.160;2022-12-29T10:18:10;9.50;;;2.50;;
5363;SDS011;2705;41.410;2.160;2022-12-29T10:20:44;4.60;;;2.93;;
5363;SDS011;2705;41.410;2.160;2022-12-29T10:23:24;4.97;;;2.10;;
5363;SDS011;2705;41.410;2.160;2022-12-29T10:25:55;7.13;;;2.67;;
5363;SDS011;2705;41.410;2.160;2022-12-29T10:28:29;6.07;;;2.53;;
5363;SDS011;2705;41.410;2.160;2022-12-29T10:31:01;10.17;;;3.57;;
5363;SDS011;2705;41.410;2.160;2022-12-29T10:33:35;10.07;;;3.10;;
5363;SDS011;2705;41.410;2.160;2022-12-29T10:36:10;13.53;;;3.10;;
5363;SDS011;2705;41.410;2.160;2022-12-29T10:38:44;9.43;;;2.67;;
5363;SDS011;2705;41.410;2.160;2022-12-29T10:41:15;6.07;;;3.30;;
5363;SDS011;2705;41.410;2.160;2022-12-29T10:43:47;6.90;;;2.77;;
5363;SDS011;2705;41.410;2.160;2022-12-29T10:46:18;8.60;;;3.50;;
5363;SDS011;2705;41.410;2.160;2022-12-29T10:48:48;5.50;;;2.83;;
5363;SDS011;2705;41.410;2.160;2022-12-29T10:51:20;17.67;;;3.47;;
5363;SDS011;2705;41.410;2.160;2022-12-29T10:53:53;8.10;;;3.70;;
5363;SDS011;2705;41.410;2.160;2022-12-29T10:56:27;15.90;;;2.87;;
5363;SDS011;2705;41.410;2.160;2022-12-29T10:58:58;8.43;;;2.50;;
5363;SDS011;2705;41.410;2.160;2022-12-29T11:01:30;7.77;;;2.90;;
5363;SDS011;2705;41.410;2.160;2022-12-29T11:04:03;7.17;;;2.60;;
5363;SDS011;2705;41.410;2.160;2022-12-29T11:06:33;11.60;;;2.40;;
5363;SDS011;2705;41.410;2.160;2022-12-29T11:09:09;6.70;;;2.40;;
5363;SDS011;2705;41.410;2.160;2022-12-29T11:11:40;9.67;;;3.27;;
5363;SDS011;2705;41.410;2.160;2022-12-29T11:14:13;6.67;;;2.40;;
5363;SDS011;2705;41.410;2.160;2022-12-29T11:16:43;5.63;;;2.60;;
5363;SDS011;2705;41.410;2.160;2022-12-29T11:19:19;13.30;;;3.07;;
5363;SDS011;2705;41.410;2.160;2022-12-29T11:21:50;7.33;;;2.90;;
5363;SDS011;2705;41.410;2.160;2022-12-29T11:24:22;7.13;;;3.03;;
5363;SDS011;2705;41.410;2.160;2022-12-29T11:26:53;5.63;;;2.40;;
5363;SDS011;2705;41.410;2.160;2022-12-29T11:29:25;6.47;;;4.10;;
5363;SDS011;2705;41.410;2.160;2022-12-29T11:31:56;4.67;;;2.70;;
5363;SDS011;2705;41.410;2.160;2022-12-29T11:34:26;13.70;;;3.97;;
5363;SDS011;2705;41.410;2.160;2022-12-29T11:37:00;11.40;;;3.10;;
5363;SDS011;2705;41.410;2.160;2022-12-29T11:39:32;8.30;;;3.20;;
5363;SDS011;2705;41.410;2.160;2022-12-29T11:42:03;6.10;;;2.37;;
5363;SDS011;2705;41.410;2.160;2022-12-29T11:44:36;5.17;;;3.23;;
5363;SDS011;2705;41.410;2.160;2022-12-29T11:47:06;15.80;;;4.47;;
5363;SDS011;2705;41.410;2.160;2022-12-29T11:49:37;6.87;;;2.67;;
5363;SDS011;2705;41.410;2.160;2022-12-29T11:52:07;14.47;;;4.20;;
5363;SDS011;2705;41.410;2.160;2022-12-29T11:54:38;11.27;;;3.13;;
5363;SDS011;2705;41.410;2.160;2022-12-29T11:57:10;11.03;;;4.00;;
5363;SDS011;2705;41.410;2.160;2022-12-29T11:59:42;12.67;;;5.40;;
5363;SDS011;2705;41.410;2.160;2022-12-29T12:05:16;5.13;;;3.10;;
5363;SDS011;2705;41.410;2.160;2022-12-29T12:07:49;6.20;;;2.83;;
5363;SDS011;2705;41.410;2.160;2022-12-29T12:10:22;10.80;;;2.77;;
5363;SDS011;2705;41.410;2.160;2022-12-29T12:12:55;5.03;;;2.30;;
5363;SDS011;2705;41.410;2.160;2022-12-29T12:15:27;10.23;;;3.33;;
5363;SDS011;2705;41.410;2.160;2022-12-29T12:17:59;11.03;;;2.63;;
5363;SDS011;2705;41.410;2.160;2022-12-29T12:20:34;8.40;;;2.23;;
5363;SDS011;2705;41.410;2.160;2022-12-29T12:23:07;7.87;;;2.53;;
5363;SDS011;2705;41.410;2.160;2022-12-29T12:25:45;11.40;;;2.77;;
5363;SDS011;2705;41.410;2.160;2022-12-29T12:28:18;10.50;;;2.73;;
5363;SDS011;2705;41.410;2.160;2022-12-29T12:30:50;7.80;;;2.73;;
5363;SDS011;2705;41.410;2.160;2022-12-29T12:33:22;8.10;;;2.60;;
5363;SDS011;2705;41.410;2.160;2022-12-29T12:35:57;9.30;;;2.77;;
5363;SDS011;2705;41.410;2.160;2022-12-29T12:38:33;9.97;;;3.53;;
5363;SDS011;2705;41.410;2.160;2022-12-29T12:41:09;5.50;;;2.60;;
5363;SDS011;2705;41.410;2.160;2022-12-29T12:44:01;10.20;;;2.97;;
5363;SDS011;2705;41.410;2.160;2022-12-29T12:46:39;5.20;;;2.40;;
5363;SDS011;2705;41.410;2.160;2022-12-29T12:49:21;4.13;;;2.13;;
5363;SDS011;2705;41.410;2.160;2022-12-29T12:51:54;5.57;;;2.60;;
5363;SDS011;2705;41.410;2.160;2022-12-29T12:54:35;7.03;;;2.67;;
5363;SDS011;2705;41.410;2.160;2022-12-29T12:57:11;9.60;;;2.87;;
5363;SDS011;2705;41.410;2.160;2022-12-29T12:59:48;10.83;;;2.90;;
5363;SDS011;2705;41.410;2.160;2022-12-29T13:02:28;10.93;;;2.70;;
5363;SDS011;2705;41.410;2.160;2022-12-29T13:05:07;12.10;;;3.20;;
5363;SDS011;2705;41.410;2.160;2022-12-29T13:07:41;10.90;;;2.77;;
5363;SDS011;2705;41.410;2.160;2022-12-29T13:10:28;9.63;;;2.20;;
5363;SDS011;2705;41.410;2.160;2022-12-29T13:13:05;5.33;;;2.50;;
5363;SDS011;2705;41.410;2.160;2022-12-29T13:15:38;6.50;;;2.27;;
5363;SDS011;2705;41.410;2.160;2022-12-29T13:18:13;11.07;;;3.00;;
5363;SDS011;2705;41.410;2.160;2022-12-29T13:20:46;7.80;;;3.50;;
5363;SDS011;2705;41.410;2.160;2022-12-29T13:23:17;8.77;;;3.07;;
5363;SDS011;2705;41.410;2.160;2022-12-29T13:25:50;7.00;;;2.40;;
5363;SDS011;2705;41.410;2.160;2022-12-29T13:28:22;13.70;;;3.40;;
5363;SDS011;2705;41.410;2.160;2022-12-29T13:30:57;6.93;;;2.63;;
5363;SDS011;2705;41.410;2.160;2022-12-29T13:33:32;7.10;;;3.00;;
5363;SDS011;2705;41.410;2.160;2022-12-29T13:36:08;10.37;;;2.53;;
5363;SDS011;2705;41.410;2.160;2022-12-29T13:38:40;5.13;;;2.40;;
5363;SDS011;2705;41.410;2.160;2022-12-29T13:41:12;3.40;;;2.40;;
5363;SDS011;2705;41.410;2.160;2022-12-29T13:43:44;6.40;;;2.80;;
5363;SDS011;2705;41.410;2.160;2022-12-29T13:46:15;11.13;;;2.73;;
5363;SDS011;2705;41.410;2.160;2022-12-29T13:48:46;14.37;;;5.13;;
5363;SDS011;2705;41.410;2.160;2022-12-29T13:51:18;8.00;;;2.87;;
5363;SDS011;2705;41.410;2.160;2022-12-29T13:54:11;5.30;;;2.53;;
5363;SDS011;2705;41.410;2.160;2022-12-29T13:56:42;5.63;;;2.37;;
5363;SDS011;2705;41.410;2.160;2022-12-29T13:59:17;6.73;;;3.00;;
5363;SDS011;2705;41.410;2.160;2022-12-29T14:01:50;7.17;;;2.90;;
5363;SDS011;2705;41.410;2.160;2022-12-29T14:04:22;6.03;;;2.50;;
5363;SDS011;2705;41.410;2.160;2022-12-29T14:07:00;8.37;;;2.40;;
5363;SDS011;2705;41.410;2.160;2022-12-29T14:09:38;13.70;;;3.87;;
5363;SDS011;2705;41.410;2.160;2022-12-29T14:15:14;8.27;;;3.10;;
5363;SDS011;2705;41.410;2.160;2022-12-29T14:17:44;5.77;;;2.70;;
5363;SDS011;2705;41.410;2.160;2022-12-29T14:20:28;4.60;;;2.00;;
5363;SDS011;2705;41.410;2.160;2022-12-29T14:22:58;6.87;;;3.17;;
5363;SDS011;2705;41.410;2.160;2022-12-29T14:28:15;10.17;;;2.90;;
5363;SDS011;2705;41.410;2.160;2022-12-29T14:30:49;10.03;;;2.80;;
5363;SDS011;2705;41.410;2.160;2022-12-29T14:33:20;4.83;;;2.40;;
5363;SDS011;2705;41.410;2.160;2022-12-29T14:35:50;8.77;;;2.63;;
5363;SDS011;2705;41.410;2.160;2022-12-29T14:38:24;11.27;;;3.30;;
5363;SDS011;2705;41.410;2.160;2022-12-29T14:43:53;7.80;;;2.87;;
5363;SDS011;2705;41.410;2.160;2022-12-29T14:46:24;6.57;;;2.70;;
5363;SDS011;2705;41.410;2.160;2022-12-29T14:48:55;5.67;;;2.20;;
5363;SDS011;2705;41.410;2.160;2022-12-29T14:51:29;10.07;;;2.70;;
5363;SDS011;2705;41.410;2.160;2022-12-29T14:53:59;9.20;;;3.30;;
5363;SDS011;2705;41.410;2.160;2022-12-29T14:56:28;6.40;;;2.37;;
5363;SDS011;2705;41.410;2.160;2022-12-29T14:59:00;6.00;;;2.63;;
5363;SDS011;2705;41.410;2.160;2022-12-29T15:01:36;8.53;;;2.30;;
5363;SDS011;2705;41.410;2.160;2022-12-29T15:04:14;11.03;;;2.63;;
5363;SDS011;2705;41.410;2.160;2022-12-29T15:06:44;5.70;;;2.50;;
5363;SDS011;2705;41.410;2.160;2022-12-29T15:09:17;6.57;;;2.53;;
5363;SDS011;2705;41.410;2.160;2022-12-29T15:11:51;5.93;;;2.47;;
5363;SDS011;2705;41.410;2.160;2022-12-29T15:14:28;6.10;;;2.30;;
5363;SDS011;2705;41.410;2.160;2022-12-29T15:16:59;4.90;;;2.27;;
5363;SDS011;2705;41.410;2.160;2022-12-29T15:19:28;4.60;;;2.57;;
5363;SDS011;2705;41.410;2.160;2022-12-29T15:21:57;8.17;;;2.20;;
5363;SDS011;2705;41.410;2.160;2022-12-29T15:24:27;5.83;;;2.57;;
5363;SDS011;2705;41.410;2.160;2022-12-29T15:26:56;5.60;;;3.17;;
5363;SDS011;2705;41.410;2.160;2022-12-29T15:29:29;7.83;;;2.70;;
5363;SDS011;2705;41.410;2.160;2022-12-29T15:32:10;12.57;;;2.90;;
5363;SDS011;2705;41.410;2.160;2022-12-29T15:34:40;5.07;;;2.70;;
5363;SDS011;2705;41.410;2.160;2022-12-29T15:37:15;12.87;;;2.73;;
5363;SDS011;2705;41.410;2.160;2022-12-29T15:39:45;7.23;;;2.77;;
5363;SDS011;2705;41.410;2.160;2022-12-29T15:42:19;6.97;;;2.43;;
5363;SDS011;2705;41.410;2.160;2022-12-29T15:44:50;6.93;;;3.30;;
5363;SDS011;2705;41.410;2.160;2022-12-29T15:47:30;11.33;;;2.83;;
5363;SDS011;2705;41.410;2.160;2022-12-29T15:50:01;11.97;;;4.10;;
5363;SDS011;2705;41.410;2.160;2022-12-29T15:52:32;16.50;;;4.60;;
5363;SDS011;2705;41.410;2.160;2022-12-29T15:55:02;4.37;;;2.20;;
5363;SDS011;2705;41.410;2.160;2022-12-29T15:57:36;8.97;;;2.70;;
5363;SDS011;2705;41.410;2.160;2022-12-29T16:00:17;4.20;;;2.60;;
5363;SDS011;2705;41.410;2.160;2022-12-29T16:02:54;11.13;;;2.97;;